createdAt,value
2018-12-03T00:01:35.452Z,92722.13
2018-12-03T00:04:36.226Z,92726.79
2018-12-03T00:07:03.686Z,92729.48
2018-12-03T00:09:31.074Z,92721.27
2018-12-03T00:11:58.435Z,92718.07
2018-12-03T00:14:25.826Z,92719.03
2018-12-03T00:16:53.217Z,92713.97
2018-12-03T00:19:20.609Z,92708.77
2018-12-03T00:21:47.994Z,92708.98
2018-12-03T00:27:24.139Z,92712.23
2018-12-03T00:29:53.964Z,92708.67
2018-12-03T00:32:24.023Z,92712.69
2018-12-03T00:34:54.083Z,92706.94
2018-12-03T00:37:23.824Z,92712.64
2018-12-03T00:39:53.991Z,92710.81
2018-12-03T00:42:24.065Z,92705.42
2018-12-03T00:44:54.134Z,92707.71
2018-12-03T00:47:23.509Z,92691.35
2018-12-03T00:49:53.295Z,92697.89
2018-12-03T00:52:23.393Z,92712.83
2018-12-03T00:55:11.744Z,92707.44
2018-12-03T00:58:01.965Z,92712.09
2018-12-03T01:00:32.033Z,92704.65
2018-12-03T01:03:02.463Z,92703.00
2018-12-03T01:05:32.520Z,92700.63
2018-12-03T01:08:20.570Z,92705.02
2018-12-03T01:10:49.901Z,92702.72
2018-12-03T01:13:19.660Z,92724.38
2018-12-03T01:15:49.766Z,92733.70
2018-12-03T01:18:19.736Z,92744.25
2018-12-03T01:20:49.458Z,92738.36
2018-12-03T01:23:18.969Z,92732.73
2018-12-03T01:25:48.133Z,92737.34
2018-12-03T01:28:18.200Z,92746.20
2018-12-03T01:30:47.896Z,92740.45
2018-12-03T01:33:18.006Z,92736.43
2018-12-03T01:35:47.539Z,92725.61
2018-12-03T01:38:17.623Z,92718.70
2018-12-03T01:40:47.800Z,92711.38
2018-12-03T01:46:13.718Z,92724.84
2018-12-03T01:48:43.521Z,92725.61
2018-12-03T01:51:52.347Z,92728.86
2018-12-03T01:54:21.649Z,92722.14
2018-12-03T01:59:46.884Z,92725.92
2018-12-03T02:02:16.939Z,92729.08
2018-12-03T02:04:46.563Z,92725.63
2018-12-03T02:07:16.415Z,92722.70
2018-12-03T02:09:46.145Z,92721.73
2018-12-03T02:12:15.801Z,92714.28
2018-12-03T02:14:45.152Z,92717.76
2018-12-03T02:17:53.848Z,92718.48
2018-12-03T02:20:23.629Z,92718.80
2018-12-03T02:22:53.701Z,92728.15
2018-12-03T02:25:22.695Z,92714.91
2018-12-03T02:27:52.759Z,92721.07
2018-12-03T02:30:41.436Z,92717.39
2018-12-03T02:33:11.484Z,92712.94
2018-12-03T02:35:40.901Z,92708.36
2018-12-03T02:38:10.645Z,92707.66
2018-12-03T02:40:40.649Z,92717.30
2018-12-03T02:43:10.713Z,92716.49
2018-12-03T02:45:40.813Z,92724.69
2018-12-03T02:48:10.825Z,92716.99
2018-12-03T02:50:40.874Z,92731.31
2018-12-03T02:53:10.719Z,92731.00
2018-12-03T02:55:40.579Z,92726.17
2018-12-03T02:58:10.239Z,92724.21
2018-12-03T03:03:18.364Z,92729.64
2018-12-03T03:05:48.099Z,92730.02
2018-12-03T03:08:17.809Z,92730.55
2018-12-03T03:10:47.239Z,92726.78
2018-12-03T03:13:17.291Z,92722.17
2018-12-03T03:15:47.408Z,92729.08
2018-12-03T03:18:36.034Z,92722.45
2018-12-03T03:21:05.828Z,92723.70
2018-12-03T03:23:35.931Z,92721.16
2018-12-03T03:26:05.739Z,92711.52
2018-12-03T03:28:35.548Z,92723.88
2018-12-03T03:31:05.009Z,92712.96
2018-12-03T03:33:34.723Z,92722.31
2018-12-03T03:36:04.410Z,92724.41
2018-12-03T03:38:34.264Z,92725.69
2018-12-03T03:41:04.025Z,92725.28
2018-12-03T03:43:33.675Z,92733.73
2018-12-03T03:46:03.817Z,92726.20
2018-12-03T03:48:33.479Z,92731.55
2018-12-03T03:51:03.229Z,92735.56
2018-12-03T03:53:33.298Z,92733.55
2018-12-03T03:56:03.425Z,92724.15
2018-12-03T03:58:33.067Z,92724.61
2018-12-03T04:01:03.217Z,92729.76
2018-12-03T04:03:32.902Z,92736.61
2018-12-03T04:06:03.166Z,92741.27
2018-12-03T04:08:32.965Z,92744.59
2018-12-03T04:11:02.389Z,92745.31
2018-12-03T04:13:32.156Z,92741.39
2018-12-03T04:16:01.531Z,92739.39
2018-12-03T04:18:31.574Z,92729.14
2018-12-03T04:21:01.331Z,92724.16
2018-12-03T04:23:31.181Z,92731.70
2018-12-03T04:26:01.325Z,92728.80
2018-12-03T04:28:31.466Z,92738.85
2018-12-03T04:31:01.301Z,92740.50
2018-12-03T04:33:31.101Z,92740.45
2018-12-03T04:36:00.624Z,92740.11
2018-12-03T04:38:30.369Z,92736.30
2018-12-03T04:41:00.293Z,92734.05
2018-12-03T04:43:29.770Z,92745.02
2018-12-03T04:45:59.891Z,92742.92
2018-12-03T04:48:30.019Z,92743.23
2018-12-03T04:51:00.183Z,92737.89
2018-12-03T04:53:30.302Z,92738.77
2018-12-03T04:56:00.388Z,92738.16
2018-12-03T04:58:29.907Z,92740.36
2018-12-03T05:00:59.723Z,92740.27
2018-12-03T05:03:29.797Z,92741.69
2018-12-03T05:05:59.880Z,92739.22
2018-12-03T05:08:29.971Z,92740.58
2018-12-03T05:11:00.116Z,92739.22
2018-12-03T05:13:29.448Z,92743.31
2018-12-03T05:15:59.665Z,92746.98
2018-12-03T05:18:29.405Z,92740.36
2018-12-03T05:21:38.136Z,92740.90
2018-12-03T05:24:08.136Z,92738.03
2018-12-03T05:26:38.232Z,92733.55
2018-12-03T05:29:07.730Z,92733.51
2018-12-03T05:31:37.563Z,92739.63
2018-12-03T05:34:07.478Z,92741.78
2018-12-03T05:36:37.249Z,92747.05
2018-12-03T05:39:09.914Z,92756.60
2018-12-03T05:41:39.926Z,92750.03
2018-12-03T05:44:09.317Z,92755.57
2018-12-03T05:46:39.029Z,92759.49
2018-12-03T05:49:08.751Z,92755.15
2018-12-03T05:51:38.872Z,92763.50
2018-12-03T05:54:08.271Z,92762.88
2018-12-03T05:56:38.281Z,92760.66
2018-12-03T05:59:07.706Z,92751.03
2018-12-03T06:01:37.456Z,92755.15
2018-12-03T06:04:07.962Z,92752.08
2018-12-03T06:06:37.758Z,92763.48
2018-12-03T06:09:08.985Z,92760.79
2018-12-03T06:11:38.792Z,92758.00
2018-12-03T06:14:08.253Z,92766.05
2018-12-03T06:16:37.657Z,92768.92
2018-12-03T06:19:07.586Z,92766.67
2018-12-03T06:21:37.063Z,92772.84
2018-12-03T06:24:07.326Z,92773.16
2018-12-03T06:26:37.055Z,92773.53
2018-12-03T06:29:07.396Z,92772.50
2018-12-03T06:31:36.763Z,92772.79
2018-12-03T06:34:06.806Z,92773.50
2018-12-03T06:36:36.503Z,92774.32
2018-12-03T06:39:08.868Z,92775.32
2018-12-03T06:41:38.606Z,92769.00
2018-12-03T06:44:09.557Z,92774.20
2018-12-03T06:46:39.424Z,92777.14
2018-12-03T06:49:09.514Z,92773.73
2018-12-03T06:51:39.294Z,92785.56
2018-12-03T06:54:08.999Z,92779.98
2018-12-03T06:56:38.828Z,92790.75
2018-12-03T06:59:08.636Z,92782.70
2018-12-03T07:01:37.340Z,92780.95
2018-12-03T07:04:06.617Z,92785.63
2018-12-03T07:06:36.767Z,92789.41
2018-12-03T07:09:10.413Z,92785.78
2018-12-03T07:11:40.089Z,92787.58
2018-12-03T07:14:09.691Z,92783.13
2018-12-03T07:16:39.463Z,92771.06
2018-12-03T07:19:09.575Z,92781.35
2018-12-03T07:21:39.638Z,92780.44
2018-12-03T07:24:09.479Z,92780.38
2018-12-03T07:26:39.703Z,92786.11
2018-12-03T07:29:09.844Z,92780.98
2018-12-03T07:31:39.992Z,92786.02
2018-12-03T07:34:09.668Z,92787.45
2018-12-03T07:36:39.142Z,92792.50
2018-12-03T07:39:08.886Z,92786.03
2018-12-03T07:41:38.172Z,92790.69
2018-12-03T07:44:08.005Z,92795.59
2018-12-03T07:46:38.025Z,92793.56
2018-12-03T07:49:07.389Z,92796.41
2018-12-03T07:51:36.745Z,92791.88
2018-12-03T07:54:05.736Z,92799.17
2018-12-03T07:56:35.803Z,92793.32
2018-12-03T07:59:05.984Z,92790.59
2018-12-03T08:01:35.399Z,92798.10
2018-12-03T08:04:05.507Z,92800.52
2018-12-03T08:06:35.547Z,92794.95
2018-12-03T08:09:44.279Z,92797.73
2018-12-03T08:12:14.423Z,92802.14
2018-12-03T08:14:43.817Z,92796.34
2018-12-03T08:17:13.504Z,92797.16
2018-12-03T08:19:43.627Z,92797.77
2018-12-03T08:22:14.528Z,92796.13
2018-12-03T08:24:44.769Z,92788.72
2018-12-03T08:27:14.199Z,92788.42
2018-12-03T08:29:44.295Z,92793.78
2018-12-03T08:32:14.363Z,92785.58
2018-12-03T08:34:44.440Z,92785.72
2018-12-03T08:37:13.882Z,92784.51
2018-12-03T08:39:43.279Z,92781.28
2018-12-03T08:42:12.715Z,92772.83
2018-12-03T08:44:42.459Z,92784.81
2018-12-03T08:47:13.979Z,92788.14
2018-12-03T08:49:43.049Z,92785.48
2018-12-03T08:52:31.384Z,92790.16
2018-12-03T08:55:00.749Z,92800.27
2018-12-03T08:57:30.859Z,92789.05
2018-12-03T09:00:00.948Z,92789.20
2018-12-03T09:02:30.883Z,92783.52
2018-12-03T09:05:00.649Z,92792.41
2018-12-03T09:07:51.108Z,92784.16
2018-12-03T09:10:21.085Z,92770.28
2018-12-03T09:12:50.533Z,92780.14
2018-12-03T09:15:20.174Z,92780.85
2018-12-03T09:17:49.847Z,92783.15
2018-12-03T09:20:19.234Z,92778.53
2018-12-03T09:22:49.325Z,92783.97
2018-12-03T09:25:37.545Z,92789.89
2018-12-03T09:28:07.929Z,92785.72
2018-12-03T09:30:37.967Z,92784.70
2018-12-03T09:33:08.215Z,92797.45
2018-12-03T09:35:36.883Z,92793.78
2018-12-03T09:38:07.085Z,92796.35
2018-12-03T09:40:37.113Z,92790.06
2018-12-03T09:43:06.933Z,92795.09
2018-12-03T09:45:36.428Z,92792.89
2018-12-03T09:48:06.838Z,92777.27
2018-12-03T09:50:36.910Z,92792.95
2018-12-03T09:53:06.834Z,92783.96
2018-12-03T09:55:36.284Z,92782.70
2018-12-03T09:58:24.869Z,92785.27
2018-12-03T10:00:54.895Z,92782.78
2018-12-03T10:03:43.957Z,92774.91
2018-12-03T10:06:16.323Z,92770.73
2018-12-03T10:08:46.408Z,92774.44
2018-12-03T10:11:16.234Z,92762.44
2018-12-03T10:13:45.781Z,92754.85
2018-12-03T10:16:15.190Z,92749.09
2018-12-03T10:18:48.954Z,92752.59
2018-12-03T10:21:19.114Z,92745.70
2018-12-03T10:23:49.178Z,92743.42
2018-12-03T10:26:18.954Z,92742.88
2018-12-03T10:28:48.767Z,92729.91
2018-12-03T10:31:18.567Z,92735.34
2018-12-03T10:33:48.684Z,92728.52
2018-12-03T10:36:18.500Z,92727.52
2018-12-03T10:38:48.820Z,92728.34
2018-12-03T10:41:37.511Z,92723.09
2018-12-03T10:44:07.174Z,92712.55
2018-12-03T10:46:36.909Z,92722.44
2018-12-03T10:49:25.485Z,92728.12
2018-12-03T10:51:55.294Z,92719.94
2018-12-03T10:54:24.984Z,92707.65
2018-12-03T10:56:54.801Z,92716.55
2018-12-03T10:59:24.484Z,92714.51
2018-12-03T11:04:53.994Z,92714.80
2018-12-03T11:07:23.870Z,92704.23
2018-12-03T11:09:53.593Z,92699.77
2018-12-03T11:12:23.634Z,92705.84
2018-12-03T11:14:53.380Z,92697.84
2018-12-03T11:17:23.440Z,92705.91
2018-12-03T11:19:52.493Z,92699.59
2018-12-03T11:22:41.191Z,92694.16
2018-12-03T11:25:13.542Z,92687.92
2018-12-03T11:28:22.882Z,92680.77
2018-12-03T11:30:54.120Z,92682.78
2018-12-03T11:33:24.900Z,92681.31
2018-12-03T11:35:56.265Z,92678.56
2018-12-03T11:39:04.208Z,92681.48
2018-12-03T11:41:34.316Z,92679.67
2018-12-03T11:44:04.554Z,92673.59
2018-12-03T11:46:34.660Z,92678.84
2018-12-03T11:49:04.053Z,92667.17
2018-12-03T11:51:33.795Z,92664.06
2018-12-03T11:54:03.499Z,92664.42
2018-12-03T11:56:33.599Z,92655.42
2018-12-03T11:59:03.489Z,92643.84
2018-12-03T12:01:33.630Z,92642.84
2018-12-03T12:04:02.999Z,92637.78
2018-12-03T12:06:32.740Z,92644.20
2018-12-03T12:11:40.021Z,92642.56
2018-12-03T12:14:38.780Z,92641.81
2018-12-03T12:17:07.454Z,92644.20
2018-12-03T12:19:37.591Z,92644.78
2018-12-03T12:22:08.044Z,92639.70
2018-12-03T12:24:38.106Z,92643.20
2018-12-03T12:27:09.520Z,92640.53
2018-12-03T12:29:39.638Z,92637.42
2018-12-03T12:32:09.025Z,92627.41
2018-12-03T12:34:39.147Z,92613.44
2018-12-03T12:37:09.340Z,92617.56
2018-12-03T12:39:39.169Z,92616.84
2018-12-03T12:42:08.928Z,92615.48
2018-12-03T12:44:38.654Z,92611.80
2018-12-03T12:47:08.459Z,92612.45
2018-12-03T12:49:38.596Z,92625.31
2018-12-03T12:52:08.658Z,92627.06
2018-12-03T12:54:38.119Z,92619.05
2018-12-03T12:57:07.965Z,92615.73
2018-12-03T12:59:37.751Z,92622.26
2018-12-03T13:02:46.670Z,92619.95
2018-12-03T13:05:17.326Z,92609.59
2018-12-03T13:07:47.037Z,92620.61
2018-12-03T13:10:17.532Z,92619.62
2018-12-03T13:12:49.909Z,92608.59
2018-12-03T13:15:20.069Z,92610.80
2018-12-03T13:17:50.458Z,92609.50
2018-12-03T13:20:20.502Z,92603.17
2018-12-03T13:22:50.632Z,92604.00
2018-12-03T13:25:21.123Z,92606.67
2018-12-03T13:27:51.692Z,92600.87
2018-12-03T13:30:21.467Z,92593.70
2018-12-03T13:32:51.594Z,92600.59
2018-12-03T13:35:21.307Z,92592.07
2018-12-03T13:37:51.255Z,92590.61
2018-12-03T13:40:20.741Z,92591.15
2018-12-03T13:42:50.662Z,92599.33
2018-12-03T13:45:25.223Z,92603.65
2018-12-03T13:47:55.773Z,92587.28
2018-12-03T13:50:24.867Z,92590.60
2018-12-03T13:52:54.964Z,92604.45
2018-12-03T13:55:25.080Z,92589.38
2018-12-03T13:58:13.482Z,92592.06
2018-12-03T14:00:42.954Z,92593.34
2018-12-03T14:08:02.646Z,92599.20
2018-12-03T14:10:53.214Z,92589.11
2018-12-03T14:16:33.149Z,92589.47
2018-12-03T14:19:07.107Z,92597.74
2018-12-03T14:21:37.121Z,92600.42
2018-12-03T14:24:10.503Z,92591.70
2018-12-03T14:26:37.931Z,92591.59
2018-12-03T14:29:05.859Z,92595.73
2018-12-03T14:31:33.293Z,92597.30
2018-12-03T14:34:00.658Z,92594.06
2018-12-03T14:36:28.041Z,92603.41
2018-12-03T14:38:55.436Z,92588.88
2018-12-03T14:41:22.823Z,92590.33
2018-12-03T14:43:50.175Z,92592.44
2018-12-03T14:46:17.525Z,92595.38
2018-12-03T14:48:44.892Z,92594.19
2018-12-03T14:51:12.885Z,92605.10
2018-12-03T14:53:40.365Z,92597.34
2018-12-03T14:56:13.360Z,92596.33
2018-12-03T14:58:40.751Z,92594.95
2018-12-03T15:01:09.113Z,92583.32
2018-12-03T15:03:36.477Z,92585.89
2018-12-03T15:06:03.932Z,92586.42
2018-12-03T15:08:31.346Z,92586.70
2018-12-03T15:10:58.730Z,92596.98
2018-12-03T15:14:50.684Z,92583.04
2018-12-03T15:17:18.136Z,92580.30
2018-12-03T15:19:45.557Z,92571.77
2018-12-03T15:22:12.955Z,92567.80
2018-12-03T15:24:40.369Z,92586.18
2018-12-03T15:27:07.811Z,92580.75
2018-12-03T15:29:35.275Z,92580.47
2018-12-03T15:32:02.665Z,92576.26
2018-12-03T15:34:30.115Z,92581.58
2018-12-03T15:37:07.021Z,92574.80
2018-12-03T15:39:34.436Z,92573.94
2018-12-03T15:42:01.866Z,92568.16
2018-12-03T15:44:29.302Z,92567.63
2018-12-03T15:46:56.698Z,92566.16
2018-12-03T15:49:24.093Z,92569.83
2018-12-03T15:51:51.448Z,92569.08
2018-12-03T15:54:18.909Z,92571.83
2018-12-03T15:56:46.346Z,92574.11
2018-12-03T15:59:13.893Z,92578.60
2018-12-03T16:01:41.361Z,92577.84
2018-12-03T16:04:08.804Z,92565.74
2018-12-03T16:06:36.230Z,92563.03
2018-12-03T16:09:07.758Z,92561.73
2018-12-03T16:11:35.168Z,92558.20
2018-12-03T16:14:02.606Z,92560.70
2018-12-03T16:16:53.211Z,92556.20
2018-12-03T16:19:20.605Z,92556.34
2018-12-03T16:21:48.004Z,92553.16
2018-12-03T16:24:15.405Z,92546.71
2018-12-03T16:26:42.820Z,92537.80
2018-12-03T16:29:10.232Z,92543.03
2018-12-03T16:33:02.111Z,92540.90
2018-12-03T16:35:29.729Z,92537.75
2018-12-03T16:37:57.181Z,92544.31
2018-12-03T16:40:24.613Z,92542.84
2018-12-03T16:42:52.042Z,92534.45
2018-12-03T16:45:19.476Z,92526.64
2018-12-03T16:47:46.944Z,92528.73
2018-12-03T16:50:14.368Z,92522.23
2018-12-03T16:52:41.786Z,92519.24
2018-12-03T16:55:09.186Z,92511.29
2018-12-03T16:57:36.588Z,92504.81
2018-12-03T17:00:09.038Z,92496.57
2018-12-03T17:02:36.467Z,92497.95
2018-12-03T17:05:04.329Z,92495.66
2018-12-03T17:07:31.753Z,92491.78
2018-12-03T17:11:02.731Z,92494.80
2018-12-03T17:13:30.149Z,92484.06
2018-12-03T17:15:57.556Z,92489.54
2018-12-03T17:18:24.941Z,92484.81
2018-12-03T17:20:58.663Z,92491.94
2018-12-03T17:23:39.273Z,92486.13
2018-12-03T17:26:06.707Z,92493.94
2018-12-03T17:28:34.099Z,92483.23
2018-12-03T17:31:01.520Z,92477.84
2018-12-03T17:33:28.972Z,92476.69
2018-12-03T17:35:56.447Z,92471.03
2018-12-03T17:38:23.917Z,92461.14
2018-12-03T17:40:51.343Z,92459.11
2018-12-03T17:43:18.702Z,92458.74
2018-12-03T17:45:46.866Z,92457.83
2018-12-03T17:48:14.416Z,92461.14
2018-12-03T17:50:41.838Z,92468.53
2018-12-03T17:53:09.200Z,92461.50
2018-12-03T17:55:36.649Z,92446.45
2018-12-03T17:58:03.984Z,92453.16
2018-12-03T18:00:31.411Z,92443.00
2018-12-03T18:02:58.873Z,92442.61
2018-12-03T18:05:26.322Z,92437.02
2018-12-03T18:07:53.758Z,92437.48
2018-12-03T18:10:21.147Z,92438.58
2018-12-03T18:12:48.653Z,92444.14
2018-12-03T18:15:16.089Z,92433.15
2018-12-03T18:17:43.524Z,92434.89
2018-12-03T18:20:10.993Z,92430.84
2018-12-03T18:22:38.407Z,92439.42
2018-12-03T18:25:06.309Z,92438.45
2018-12-03T18:27:33.743Z,92446.59
2018-12-03T18:30:01.122Z,92450.61
2018-12-03T18:32:28.560Z,92453.18
2018-12-03T18:34:55.977Z,92465.01
2018-12-03T18:37:23.393Z,92460.66
2018-12-03T18:39:50.834Z,92483.37
2018-12-03T18:42:21.789Z,92492.83
2018-12-03T18:44:50.255Z,92478.96
2018-12-03T18:47:25.092Z,92515.59
2018-12-03T18:49:55.860Z,92504.31
2018-12-03T18:52:24.234Z,92503.52
2018-12-03T18:54:51.714Z,92495.22
2018-12-03T18:57:19.151Z,92464.02
2018-12-03T18:59:46.715Z,92455.46
2018-12-03T19:02:14.303Z,92446.36
2018-12-03T19:04:41.921Z,92452.50
2018-12-03T19:07:09.365Z,92462.47
2018-12-03T19:09:36.798Z,92456.95
2018-12-03T19:12:04.299Z,92472.40
2018-12-03T19:14:31.736Z,92475.88
2018-12-03T19:16:59.103Z,92483.00
2018-12-03T19:19:26.561Z,92488.66
2018-12-03T19:21:53.955Z,92495.05
2018-12-03T19:24:21.398Z,92501.05
2018-12-03T19:26:48.849Z,92516.47
2018-12-03T19:29:16.249Z,92516.05
2018-12-03T19:31:47.486Z,92522.41
2018-12-03T19:34:15.269Z,92524.75
2018-12-03T19:37:02.870Z,92522.46
2018-12-03T19:39:30.459Z,92531.72
2018-12-03T19:41:57.921Z,92538.33
2018-12-03T19:44:25.434Z,92529.31
2018-12-03T19:46:59.801Z,92545.13
2018-12-03T19:49:27.291Z,92548.36
2018-12-03T19:51:57.704Z,92539.34
2018-12-03T19:54:25.225Z,92562.23
2018-12-03T19:56:53.168Z,92579.38
2018-12-03T19:59:24.676Z,92568.47
2018-12-03T20:01:55.584Z,92565.91
2018-12-03T20:04:28.535Z,92581.95
2018-12-03T20:09:21.131Z,92577.87
2018-12-03T20:11:48.608Z,92597.02
2018-12-03T20:14:22.188Z,92592.27
2018-12-03T20:16:50.636Z,92611.66
2018-12-03T20:19:20.242Z,92617.17
2018-12-03T20:21:49.104Z,92639.97
2018-12-03T20:24:18.095Z,92645.45
2018-12-03T20:27:54.462Z,92658.58
2018-12-03T20:30:36.736Z,92667.81
2018-12-03T20:33:12.690Z,92675.09
2018-12-03T20:35:50.169Z,92693.41
2018-12-03T20:38:45.953Z,92686.72
2018-12-03T20:41:48.344Z,92684.96
2018-12-03T20:44:28.271Z,92701.28
2018-12-03T20:47:05.724Z,92714.89
2018-12-03T20:49:56.855Z,92726.07
2018-12-03T20:52:28.159Z,92744.03
2018-12-03T20:55:05.145Z,92748.70
2018-12-03T20:57:36.130Z,92766.33
2018-12-03T21:00:09.639Z,92769.02
2018-12-03T21:02:41.114Z,92789.69
2018-12-03T21:05:14.319Z,92792.80
2018-12-03T21:07:48.070Z,92797.72
2018-12-03T21:12:53.529Z,92823.00
2018-12-03T21:15:28.025Z,92851.19
2018-12-03T21:17:59.089Z,92846.61
2018-12-03T21:20:33.756Z,92843.03
2018-12-03T21:23:04.387Z,92846.17
2018-12-03T21:25:35.312Z,92856.52
2018-12-03T21:28:06.184Z,92848.74
2018-12-03T21:30:37.228Z,92861.97
2018-12-03T21:33:04.683Z,92855.71
2018-12-03T21:35:36.704Z,92873.78
2018-12-03T21:38:04.134Z,92882.47
2018-12-03T21:40:37.590Z,92873.41
2018-12-03T21:43:09.039Z,92875.38
2018-12-03T21:45:39.755Z,92883.91
2018-12-03T21:48:07.227Z,92884.74
2018-12-03T21:50:34.635Z,92890.96
2018-12-03T21:53:02.061Z,92888.53
2018-12-03T21:55:29.493Z,92903.53
2018-12-03T21:57:57.371Z,92890.59
2018-12-03T22:00:26.497Z,92898.68
2018-12-03T22:02:53.975Z,92905.72
2018-12-03T22:05:21.400Z,92905.48
2018-12-03T22:07:49.117Z,92904.52
2018-12-03T22:10:16.489Z,92902.42
2018-12-03T22:12:43.957Z,92902.22
2018-12-03T22:15:11.358Z,92905.92
2018-12-03T22:17:57.460Z,92901.44
2018-12-03T22:20:28.200Z,92908.41
2018-12-03T22:22:56.816Z,92917.42
2018-12-03T22:25:24.197Z,92906.67
2018-12-03T22:28:04.819Z,92917.68
2018-12-03T22:30:37.880Z,92920.60
2018-12-03T22:33:05.359Z,92920.23
2018-12-03T22:35:32.812Z,92927.11
2018-12-03T22:38:04.631Z,92922.95
2018-12-03T22:40:32.016Z,92930.44
2018-12-03T22:43:03.200Z,92926.84
2018-12-03T22:45:33.832Z,92951.00
2018-12-03T22:48:04.520Z,92934.73
2018-12-03T22:50:37.515Z,92936.97
2018-12-03T22:53:04.951Z,92928.80
2018-12-03T22:55:38.257Z,92936.59
2018-12-03T22:58:07.760Z,92936.59
2018-12-03T23:00:38.710Z,92939.65
2018-12-03T23:03:06.142Z,92941.63
2018-12-03T23:05:37.324Z,92941.59
2018-12-03T23:08:08.264Z,92935.77
2018-12-03T23:10:38.984Z,92933.63
2018-12-03T23:13:12.149Z,92941.30
2018-12-03T23:15:44.944Z,92938.62
2018-12-03T23:18:16.289Z,92937.75
2018-12-03T23:20:47.125Z,92938.83
2018-12-03T23:23:16.135Z,92942.91
2018-12-03T23:25:47.061Z,92942.91
2018-12-03T23:28:18.130Z,92949.17
2018-12-03T23:30:51.687Z,92949.42
2018-12-03T23:33:22.594Z,92953.34
2018-12-03T23:35:55.816Z,92962.03
2018-12-03T23:38:27.281Z,92962.78
2018-12-03T23:40:58.290Z,92959.61
2018-12-03T23:43:29.097Z,92958.00
2018-12-03T23:46:04.290Z,92956.22
2018-12-03T23:48:35.672Z,92951.94
2018-12-03T23:51:06.495Z,92943.81
2018-12-03T23:53:33.899Z,92946.74
2018-12-03T23:56:03.129Z,92949.83
2018-12-03T23:58:36.380Z,92955.40
